createdAt,value
2018-04-08T00:00:51.989Z,987.77
2018-04-08T00:01:52.074Z,987.72
2018-04-08T00:02:52.198Z,987.74
2018-04-08T00:03:52.295Z,987.71
2018-04-08T00:04:52.388Z,987.74
2018-04-08T00:05:52.466Z,987.66
2018-04-08T00:06:52.549Z,987.67
2018-04-08T00:07:52.679Z,987.69
2018-04-08T00:08:52.783Z,987.71
2018-04-08T00:09:52.912Z,987.67
2018-04-08T00:10:52.989Z,987.73
2018-04-08T00:11:53.082Z,987.72
2018-04-08T00:12:53.193Z,987.71
2018-04-08T00:13:53.298Z,987.70
2018-04-08T00:14:53.387Z,987.70
2018-04-08T00:15:53.483Z,987.69
2018-04-08T00:16:53.579Z,987.70
2018-04-08T00:17:53.657Z,987.69
2018-04-08T00:18:53.738Z,987.68
2018-04-08T00:19:53.836Z,987.68
2018-04-08T00:20:53.958Z,987.67
2018-04-08T00:21:54.064Z,987.64
2018-04-08T00:22:54.195Z,987.64
2018-04-08T00:23:54.315Z,987.64
2018-04-08T00:24:54.428Z,987.61
2018-04-08T00:25:54.509Z,987.60
2018-04-08T00:26:54.608Z,987.58
2018-04-08T00:27:54.690Z,987.57
2018-04-08T00:28:54.778Z,987.54
2018-04-08T00:29:54.873Z,987.60
2018-04-08T00:30:54.970Z,987.62
2018-04-08T00:31:55.065Z,987.58
2018-04-08T00:32:55.182Z,987.60
2018-04-08T00:33:55.281Z,987.56
2018-04-08T00:34:55.381Z,987.55
2018-04-08T00:35:55.461Z,987.50
2018-04-08T00:36:55.563Z,987.50
2018-04-08T00:37:55.673Z,987.49
2018-04-08T00:38:55.761Z,987.49
2018-04-08T00:39:55.850Z,987.47
2018-04-08T00:40:55.951Z,987.47
2018-04-08T00:41:56.051Z,987.42
2018-04-08T00:42:56.153Z,987.46
2018-04-08T00:43:56.257Z,987.45
2018-04-08T00:44:56.338Z,987.45
2018-04-08T00:45:56.416Z,987.44
2018-04-08T00:46:56.506Z,987.42
2018-04-08T00:47:56.582Z,987.44
2018-04-08T00:48:56.677Z,987.42
2018-04-08T00:49:56.792Z,987.43
2018-04-08T00:50:56.880Z,987.43
2018-04-08T00:51:56.960Z,987.43
2018-04-08T00:52:57.048Z,987.41
2018-04-08T00:53:57.132Z,987.44
2018-04-08T00:54:57.217Z,987.43
2018-04-08T00:55:57.325Z,987.42
2018-04-08T00:56:57.409Z,987.42
2018-04-08T00:57:57.501Z,987.39
2018-04-08T00:58:57.585Z,987.36
2018-04-08T00:59:57.674Z,987.36
2018-04-08T01:00:57.750Z,987.38
2018-04-08T01:01:57.834Z,987.39
2018-04-08T01:02:57.925Z,987.40
2018-04-08T01:03:58.012Z,987.35
2018-04-08T01:04:58.113Z,987.39
2018-04-08T01:05:58.199Z,987.39
2018-04-08T01:06:58.301Z,987.39
2018-04-08T01:07:58.388Z,987.40
2018-04-08T01:08:58.473Z,987.39
2018-04-08T01:09:58.558Z,987.37
2018-04-08T01:10:58.639Z,987.38
2018-04-08T01:11:58.733Z,987.39
2018-04-08T01:12:58.870Z,987.39
2018-04-08T01:13:58.916Z,987.45
2018-04-08T01:14:59.004Z,987.44
2018-04-08T01:15:59.085Z,987.45
2018-04-08T01:16:59.206Z,987.43
2018-04-08T01:17:59.286Z,987.40
2018-04-08T01:18:59.369Z,987.40
2018-04-08T01:19:59.506Z,987.40
2018-04-08T01:20:59.607Z,987.37
2018-04-08T01:21:59.689Z,987.33
2018-04-08T01:22:59.782Z,987.36
2018-04-08T01:23:59.857Z,987.34
2018-04-08T01:24:59.953Z,987.34
2018-04-08T01:26:00.052Z,987.32
2018-04-08T01:27:00.144Z,987.32
2018-04-08T01:28:00.232Z,987.34
2018-04-08T01:29:00.366Z,987.33
2018-04-08T01:30:00.451Z,987.35
2018-04-08T01:31:00.541Z,987.32
2018-04-08T01:32:00.635Z,987.33
2018-04-08T01:33:00.720Z,987.27
2018-04-08T01:34:00.809Z,987.31
2018-04-08T01:35:00.927Z,987.27
2018-04-08T01:36:01.010Z,987.28
2018-04-08T01:37:01.092Z,987.29
2018-04-08T01:38:01.181Z,987.27
2018-04-08T01:39:01.258Z,987.27
2018-04-08T01:40:01.351Z,987.25
2018-04-08T01:41:01.459Z,987.28
2018-04-08T01:42:01.555Z,987.27
2018-04-08T01:43:01.626Z,987.26
2018-04-08T01:44:01.715Z,987.26
2018-04-08T01:45:01.806Z,987.27
2018-04-08T01:46:01.913Z,987.26
2018-04-08T01:47:01.993Z,987.29
2018-04-08T01:48:02.076Z,987.29
2018-04-08T01:49:02.172Z,987.28
2018-04-08T01:50:02.262Z,987.27
2018-04-08T01:51:02.352Z,987.30
2018-04-08T01:52:02.436Z,987.27
2018-04-08T01:53:02.536Z,987.24
2018-04-08T01:54:02.652Z,987.23
2018-04-08T01:55:02.734Z,987.22
2018-04-08T01:56:02.810Z,987.23
2018-04-08T01:57:02.897Z,987.24
2018-04-08T01:58:02.986Z,987.22
2018-04-08T01:59:03.081Z,987.20
2018-04-08T02:00:03.164Z,987.24
2018-04-08T02:01:03.258Z,987.25
2018-04-08T02:02:03.343Z,987.20
2018-04-08T02:03:03.447Z,987.21
2018-04-08T02:04:03.540Z,987.23
2018-04-08T02:05:03.623Z,987.18
2018-04-08T02:06:03.724Z,987.22
2018-04-08T02:07:03.802Z,987.20
2018-04-08T02:08:03.909Z,987.19
2018-04-08T02:09:04.001Z,987.18
2018-04-08T02:10:04.093Z,987.15
2018-04-08T02:11:04.184Z,987.14
2018-04-08T02:12:04.278Z,987.11
2018-04-08T02:13:04.372Z,987.11
2018-04-08T02:14:04.462Z,987.11
2018-04-08T02:15:04.553Z,987.09
2018-04-08T02:16:04.644Z,987.12
2018-04-08T02:17:04.735Z,987.09
2018-04-08T02:18:04.826Z,987.12
2018-04-08T02:19:04.921Z,987.15
2018-04-08T02:20:05.006Z,987.13
2018-04-08T02:21:05.119Z,987.12
2018-04-08T02:22:05.217Z,987.11
2018-04-08T02:23:05.306Z,987.15
2018-04-08T02:24:05.398Z,987.12
2018-04-08T02:25:05.482Z,987.13
2018-04-08T02:26:05.586Z,987.12
2018-04-08T02:27:05.677Z,987.14
2018-04-08T02:28:05.775Z,987.14
2018-04-08T02:29:05.862Z,987.15
2018-04-08T02:30:05.957Z,987.18
2018-04-08T02:31:06.049Z,987.15
2018-04-08T02:32:06.143Z,987.17
2018-04-08T02:33:06.225Z,987.13
2018-04-08T02:34:06.314Z,987.14
2018-04-08T02:35:06.410Z,987.20
2018-04-08T02:36:06.495Z,987.12
2018-04-08T02:37:06.586Z,987.15
2018-04-08T02:38:06.677Z,987.15
2018-04-08T02:39:06.767Z,987.14
2018-04-08T02:40:06.864Z,987.16
2018-04-08T02:41:06.947Z,987.12
2018-04-08T02:42:07.037Z,987.11
2018-04-08T02:43:07.130Z,987.10
2018-04-08T02:44:07.220Z,987.15
2018-04-08T02:45:07.313Z,987.15
2018-04-08T02:46:07.405Z,987.17
2018-04-08T02:47:07.491Z,987.18
2018-04-08T02:48:07.585Z,987.18
2018-04-08T02:49:07.675Z,987.21
2018-04-08T02:50:07.776Z,987.22
2018-04-08T02:51:07.868Z,987.20
2018-04-08T02:52:07.954Z,987.17
2018-04-08T02:53:08.054Z,987.17
2018-04-08T02:54:08.144Z,987.17
2018-04-08T02:55:08.235Z,987.17
2018-04-08T02:56:08.327Z,987.15
2018-04-08T02:57:08.416Z,987.15
2018-04-08T02:58:08.505Z,987.15
2018-04-08T02:59:08.599Z,987.14
2018-04-08T03:00:08.686Z,987.15
2018-04-08T03:01:08.780Z,987.18
2018-04-08T03:02:08.869Z,987.16
2018-04-08T03:03:08.962Z,987.19
2018-04-08T03:04:09.052Z,987.19
2018-04-08T03:05:09.144Z,987.21
2018-04-08T03:06:09.235Z,987.22
2018-04-08T03:07:09.330Z,987.22
2018-04-08T03:08:09.421Z,987.21
2018-04-08T03:09:09.513Z,987.26
2018-04-08T03:10:09.604Z,987.22
2018-04-08T03:11:09.695Z,987.21
2018-04-08T03:12:09.784Z,987.21
2018-04-08T03:13:09.877Z,987.22
2018-04-08T03:14:09.971Z,987.22
2018-04-08T03:15:10.063Z,987.23
2018-04-08T03:16:10.158Z,987.15
2018-04-08T03:17:10.261Z,987.20
2018-04-08T03:18:10.352Z,987.18
2018-04-08T03:19:10.445Z,987.18
2018-04-08T03:20:10.537Z,987.18
2018-04-08T03:21:10.624Z,987.19
2018-04-08T03:22:10.720Z,987.16
2018-04-08T03:23:10.807Z,987.12
2018-04-08T03:24:10.896Z,987.18
2018-04-08T03:25:10.986Z,987.15
2018-04-08T03:26:11.076Z,987.13
2018-04-08T03:27:11.166Z,987.16
2018-04-08T03:28:11.256Z,987.12
2018-04-08T03:29:11.352Z,987.13
2018-04-08T03:30:11.446Z,987.10
2018-04-08T03:31:11.535Z,987.09
2018-04-08T03:32:11.626Z,987.09
2018-04-08T03:33:11.715Z,987.08
2018-04-08T03:34:11.803Z,987.04
2018-04-08T03:35:11.899Z,987.06
2018-04-08T03:36:11.992Z,987.05
2018-04-08T03:37:12.079Z,987.10
2018-04-08T03:38:12.172Z,987.08
2018-04-08T03:39:12.264Z,987.07
2018-04-08T03:40:12.356Z,987.08
2018-04-08T03:41:12.450Z,987.04
2018-04-08T03:42:12.540Z,987.02
2018-04-08T03:43:12.630Z,986.99
2018-04-08T03:44:12.722Z,987.01
2018-04-08T03:45:12.812Z,987.01
2018-04-08T03:46:12.901Z,987.01
2018-04-08T03:47:12.990Z,987.00
2018-04-08T03:48:13.082Z,986.94
2018-04-08T03:49:13.174Z,987.02
2018-04-08T03:50:13.262Z,987.01
2018-04-08T03:51:13.355Z,987.02
2018-04-08T03:52:13.445Z,987.04
2018-04-08T03:53:13.536Z,987.02
2018-04-08T03:54:13.626Z,987.04
2018-04-08T03:55:13.712Z,987.07
2018-04-08T03:56:13.806Z,987.02
2018-04-08T03:57:13.898Z,987.01
2018-04-08T03:58:13.991Z,987.01
2018-04-08T03:59:14.079Z,987.01
2018-04-08T04:00:14.172Z,987.00
2018-04-08T04:01:14.263Z,987.03
2018-04-08T04:02:14.347Z,987.04
2018-04-08T04:03:14.438Z,987.02
2018-04-08T04:04:14.528Z,987.02
2018-04-08T04:05:14.615Z,986.97
2018-04-08T04:06:14.708Z,987.03
2018-04-08T04:07:14.798Z,987.01
2018-04-08T04:08:14.888Z,986.97
2018-04-08T04:09:14.989Z,986.97
2018-04-08T04:10:15.086Z,986.98
2018-04-08T04:11:15.178Z,986.94
2018-04-08T04:12:15.271Z,986.97
2018-04-08T04:13:15.359Z,986.93
2018-04-08T04:14:15.453Z,986.97
2018-04-08T04:15:15.540Z,986.99
2018-04-08T04:16:15.630Z,986.98
2018-04-08T04:17:15.718Z,986.98
2018-04-08T04:18:15.812Z,986.94
2018-04-08T04:19:15.903Z,986.98
2018-04-08T04:20:15.996Z,986.95
2018-04-08T04:21:16.088Z,986.95
2018-04-08T04:22:16.180Z,986.95
2018-04-08T04:23:16.273Z,986.95
2018-04-08T04:24:16.363Z,986.94
2018-04-08T04:25:16.455Z,986.97
2018-04-08T04:26:16.546Z,986.98
2018-04-08T04:27:16.636Z,987.00
2018-04-08T04:28:16.723Z,986.99
2018-04-08T04:29:16.815Z,986.98
2018-04-08T04:30:16.905Z,986.99
2018-04-08T04:31:16.995Z,987.01
2018-04-08T04:32:17.085Z,986.99
2018-04-08T04:33:17.178Z,987.04
2018-04-08T04:34:17.269Z,987.01
2018-04-08T04:35:17.360Z,987.03
2018-04-08T04:36:17.450Z,987.00
2018-04-08T04:37:17.542Z,987.07
2018-04-08T04:38:17.630Z,987.04
2018-04-08T04:39:17.716Z,987.03
2018-04-08T04:40:17.805Z,987.04
2018-04-08T04:41:17.901Z,987.06
2018-04-08T04:42:17.980Z,987.03
2018-04-08T04:43:18.069Z,986.99
2018-04-08T04:44:18.160Z,987.01
2018-04-08T04:45:18.247Z,986.96
2018-04-08T04:46:18.337Z,986.96
2018-04-08T04:47:18.425Z,986.99
2018-04-08T04:48:18.516Z,986.95
2018-04-08T04:49:18.617Z,986.97
2018-04-08T04:50:18.709Z,986.92
2018-04-08T04:51:18.802Z,986.91
2018-04-08T04:52:18.898Z,986.97
2018-04-08T04:53:18.986Z,986.97
2018-04-08T04:54:19.081Z,986.97
2018-04-08T04:55:19.164Z,986.94
2018-04-08T04:56:19.254Z,986.97
2018-04-08T04:57:19.347Z,986.96
2018-04-08T04:58:19.437Z,986.99
2018-04-08T04:59:19.528Z,986.96
2018-04-08T05:00:19.619Z,986.99
2018-04-08T05:01:19.714Z,987.02
2018-04-08T05:02:19.800Z,986.98
2018-04-08T05:03:19.889Z,986.99
2018-04-08T05:04:19.979Z,986.96
2018-04-08T05:05:20.064Z,986.98
2018-04-08T05:06:20.159Z,986.97
2018-04-08T05:07:20.250Z,986.98
2018-04-08T05:08:20.340Z,986.96
2018-04-08T05:09:20.427Z,986.97
2018-04-08T05:10:20.518Z,986.96
2018-04-08T05:11:20.610Z,986.97
2018-04-08T05:12:20.700Z,986.95
2018-04-08T05:13:20.790Z,987.01
2018-04-08T05:14:20.880Z,986.98
2018-04-08T05:15:20.970Z,987.00
2018-04-08T05:16:21.065Z,986.99
2018-04-08T05:17:21.149Z,986.99
2018-04-08T05:18:21.228Z,986.97
2018-04-08T05:19:21.317Z,986.96
2018-04-08T05:20:22.289Z,986.97
2018-04-08T05:21:21.512Z,986.99
2018-04-08T05:22:21.614Z,987.00
2018-04-08T05:23:21.790Z,986.95
2018-04-08T05:24:21.744Z,987.01
2018-04-08T05:25:21.833Z,986.97
2018-04-08T05:26:21.918Z,986.97
2018-04-08T05:27:22.012Z,987.00
2018-04-08T05:28:22.103Z,986.98
2018-04-08T05:29:22.213Z,986.98
2018-04-08T05:30:22.298Z,986.96
2018-04-08T05:31:22.380Z,986.99
2018-04-08T05:32:22.460Z,986.96
2018-04-08T05:33:22.546Z,986.94
2018-04-08T05:34:22.652Z,986.93
2018-04-08T05:35:22.729Z,986.94
2018-04-08T05:36:22.803Z,986.92
2018-04-08T05:37:22.914Z,986.95
2018-04-08T05:38:22.998Z,986.96
2018-04-08T05:39:23.100Z,986.99
2018-04-08T05:40:23.172Z,986.94
2018-04-08T05:41:23.276Z,986.95
2018-04-08T05:42:23.385Z,986.94
2018-04-08T05:43:23.548Z,986.99
2018-04-08T05:44:23.576Z,986.99
2018-04-08T05:45:23.662Z,986.99
2018-04-08T05:46:23.794Z,986.95
2018-04-08T05:47:23.952Z,987.01
2018-04-08T05:48:23.953Z,986.99
2018-04-08T05:49:24.032Z,987.02
2018-04-08T05:50:24.148Z,987.02
2018-04-08T05:51:24.239Z,987.03
2018-04-08T05:52:24.339Z,987.02
2018-04-08T05:53:24.434Z,987.06
2018-04-08T05:54:24.529Z,987.03
2018-04-08T05:55:24.614Z,987.02
2018-04-08T05:56:24.700Z,987.01
2018-04-08T05:57:24.846Z,987.00
2018-04-08T05:58:24.924Z,987.05
2018-04-08T05:59:24.998Z,987.02
2018-04-08T06:00:25.090Z,987.01
2018-04-08T06:01:25.178Z,987.04
2018-04-08T06:02:25.254Z,987.02
2018-04-08T06:03:25.357Z,987.04
2018-04-08T06:04:25.476Z,987.05
2018-04-08T06:05:25.586Z,987.05
2018-04-08T06:06:25.726Z,987.02
2018-04-08T06:07:25.802Z,987.04
2018-04-08T06:08:25.876Z,987.05
2018-04-08T06:09:25.961Z,987.02
2018-04-08T06:10:26.060Z,987.02
2018-04-08T06:11:26.162Z,987.03
2018-04-08T06:12:26.296Z,987.06
2018-04-08T06:13:26.388Z,987.00
2018-04-08T06:14:26.481Z,987.05
2018-04-08T06:15:26.574Z,987.04
2018-04-08T06:16:26.665Z,987.10
2018-04-08T06:17:26.747Z,987.21
2018-04-08T06:18:26.851Z,987.25
2018-04-08T06:19:26.948Z,987.25
2018-04-08T06:20:27.073Z,987.26
2018-04-08T06:21:27.160Z,987.20
2018-04-08T06:22:27.287Z,987.23
2018-04-08T06:23:27.377Z,987.25
2018-04-08T06:24:27.499Z,987.27
2018-04-08T06:25:27.589Z,987.23
2018-04-08T06:26:27.675Z,987.27
2018-04-08T06:27:27.756Z,987.27
2018-04-08T06:28:27.861Z,987.22
2018-04-08T06:29:27.942Z,987.23
2018-04-08T06:30:28.029Z,987.23
2018-04-08T06:31:28.115Z,987.23
2018-04-08T06:32:28.198Z,987.21
2018-04-08T06:33:28.283Z,987.23
2018-04-08T06:34:28.387Z,987.23
2018-04-08T06:35:28.476Z,987.25
2018-04-08T06:36:28.576Z,987.21
2018-04-08T06:37:28.665Z,987.24
2018-04-08T06:38:28.747Z,987.28
2018-04-08T06:39:28.840Z,987.28
2018-04-08T06:40:28.945Z,987.29
2018-04-08T06:41:29.079Z,987.23
2018-04-08T06:42:29.187Z,987.25
2018-04-08T06:43:29.275Z,987.24
2018-04-08T06:44:29.367Z,987.18
2018-04-08T06:45:29.463Z,987.12
2018-04-08T06:46:29.551Z,987.10
2018-04-08T06:47:29.636Z,987.17
2018-04-08T06:48:29.735Z,987.13
2018-04-08T06:49:29.900Z,987.11
2018-04-08T06:50:29.966Z,987.10
2018-04-08T06:51:30.044Z,987.08
2018-04-08T06:52:30.140Z,987.05
2018-04-08T06:53:30.237Z,987.07
2018-04-08T06:54:30.338Z,987.09
2018-04-08T06:55:30.442Z,987.07
2018-04-08T06:56:30.617Z,987.07
2018-04-08T06:57:30.591Z,987.08
2018-04-08T06:58:30.694Z,987.06
2018-04-08T06:59:30.783Z,987.07
2018-04-08T07:00:30.883Z,987.06
2018-04-08T07:01:30.979Z,987.06
2018-04-08T07:02:31.078Z,987.06
2018-04-08T07:03:31.166Z,987.07
2018-04-08T07:04:31.274Z,987.08
2018-04-08T07:05:31.433Z,987.05
2018-04-08T07:06:31.444Z,987.05
2018-04-08T07:07:31.611Z,987.03
2018-04-08T07:08:31.681Z,986.99
2018-04-08T07:09:31.777Z,987.00
2018-04-08T07:10:31.949Z,986.95
2018-04-08T07:11:31.941Z,986.96
2018-04-08T07:12:32.032Z,986.94
2018-04-08T07:13:32.125Z,986.95
2018-04-08T07:14:32.228Z,986.96
2018-04-08T07:15:32.331Z,986.92
2018-04-08T07:16:32.425Z,986.97
2018-04-08T07:17:32.521Z,986.96
2018-04-08T07:18:32.698Z,986.96
2018-04-08T07:19:32.749Z,986.96
2018-04-08T07:20:32.850Z,986.96
2018-04-08T07:21:32.996Z,986.97
2018-04-08T07:22:33.088Z,986.99
2018-04-08T07:23:33.184Z,987.00
2018-04-08T07:24:33.292Z,987.01
2018-04-08T07:25:33.383Z,986.97
2018-04-08T07:26:33.505Z,986.99
2018-04-08T07:27:33.584Z,986.99
2018-04-08T07:28:33.678Z,986.98
2018-04-08T07:29:33.777Z,987.00
2018-04-08T07:30:33.946Z,987.00
2018-04-08T07:31:34.046Z,986.97
2018-04-08T07:32:34.153Z,986.98
2018-04-08T07:33:34.282Z,986.98
2018-04-08T07:34:34.389Z,987.00
2018-04-08T07:35:34.485Z,986.96
2018-04-08T07:36:34.577Z,987.01
2018-04-08T07:37:34.724Z,986.99
2018-04-08T07:38:34.827Z,986.97
2018-04-08T07:39:34.940Z,986.96
2018-04-08T07:40:35.037Z,986.94
2018-04-08T07:41:35.132Z,986.96
2018-04-08T07:42:35.256Z,986.91
2018-04-08T07:43:35.357Z,986.90
2018-04-08T07:44:35.473Z,986.87
2018-04-08T07:45:35.592Z,986.87
2018-04-08T07:46:35.696Z,986.83
2018-04-08T07:47:35.787Z,986.82
2018-04-08T07:48:35.887Z,986.79
2018-04-08T07:49:35.973Z,986.81
2018-04-08T07:50:36.070Z,986.80
2018-04-08T07:51:36.165Z,986.76
2018-04-08T07:52:36.270Z,986.80
2018-04-08T07:53:36.366Z,986.78
2018-04-08T07:54:36.475Z,986.75
2018-04-08T07:55:36.575Z,986.73
2018-04-08T07:56:36.677Z,986.72
2018-04-08T07:57:36.782Z,986.74
2018-04-08T07:58:36.898Z,986.75
2018-04-08T07:59:36.997Z,986.71
2018-04-08T08:00:37.096Z,986.68
2018-04-08T08:01:37.179Z,986.69
2018-04-08T08:02:37.268Z,986.69
2018-04-08T08:03:37.382Z,986.68
2018-04-08T08:04:37.524Z,986.69
2018-04-08T08:05:37.624Z,986.68
2018-04-08T08:06:37.721Z,986.65
2018-04-08T08:07:37.820Z,986.70
2018-04-08T08:08:37.921Z,986.68
2018-04-08T08:09:38.040Z,986.66
2018-04-08T08:10:38.139Z,986.65
2018-04-08T08:11:38.232Z,986.66
2018-04-08T08:12:38.334Z,986.64
2018-04-08T08:13:38.436Z,986.66
2018-04-08T08:14:38.530Z,986.67
2018-04-08T08:15:38.628Z,986.63
2018-04-08T08:16:38.725Z,986.62
2018-04-08T08:17:38.822Z,986.63
2018-04-08T08:18:38.918Z,986.61
2018-04-08T08:19:39.014Z,986.60
2018-04-08T08:20:39.115Z,986.59
2018-04-08T08:21:39.214Z,986.60
2018-04-08T08:22:39.311Z,986.59
2018-04-08T08:23:39.470Z,986.59
2018-04-08T08:24:39.507Z,986.61
2018-04-08T08:25:39.603Z,986.62
2018-04-08T08:26:39.701Z,986.61
2018-04-08T08:27:39.800Z,986.61
2018-04-08T08:28:39.896Z,986.59
2018-04-08T08:29:39.997Z,986.57
2018-04-08T08:30:40.094Z,986.54
2018-04-08T08:31:40.181Z,986.52
2018-04-08T08:32:40.285Z,986.53
2018-04-08T08:33:40.378Z,986.53
2018-04-08T08:34:40.471Z,986.54
2018-04-08T08:35:40.568Z,986.51
2018-04-08T08:36:40.683Z,986.52
2018-04-08T08:37:40.779Z,986.53
2018-04-08T08:38:40.874Z,986.50
2018-04-08T08:39:40.974Z,986.51
2018-04-08T08:40:41.072Z,986.49
2018-04-08T08:41:41.173Z,986.50
2018-04-08T08:42:41.264Z,986.48
2018-04-08T08:43:41.403Z,986.50
2018-04-08T08:44:41.457Z,986.49
2018-04-08T08:45:41.557Z,986.48
2018-04-08T08:46:41.655Z,986.48
2018-04-08T08:47:41.754Z,986.47
2018-04-08T08:48:41.856Z,986.44
2018-04-08T08:49:41.957Z,986.46
2018-04-08T08:50:42.039Z,986.43
2018-04-08T08:51:42.150Z,986.45
2018-04-08T08:52:42.245Z,986.44
2018-04-08T08:53:42.345Z,986.41
2018-04-08T08:54:42.444Z,986.41
2018-04-08T08:55:42.543Z,986.36
2018-04-08T08:56:42.642Z,986.35
2018-04-08T08:57:42.736Z,986.37
2018-04-08T08:58:42.831Z,986.35
2018-04-08T08:59:42.929Z,986.33
2018-04-08T09:00:43.032Z,986.33
2018-04-08T09:01:43.129Z,986.33
2018-04-08T09:02:43.229Z,986.33
2018-04-08T09:03:43.330Z,986.30
2018-04-08T09:04:43.432Z,986.30
2018-04-08T09:05:43.531Z,986.28
2018-04-08T09:06:43.693Z,986.31
2018-04-08T09:07:43.727Z,986.31
2018-04-08T09:08:43.823Z,986.31
2018-04-08T09:09:43.928Z,986.30
2018-04-08T09:10:44.029Z,986.29
2018-04-08T09:11:44.124Z,986.26
2018-04-08T09:12:44.229Z,986.29
2018-04-08T09:13:44.321Z,986.27
2018-04-08T09:14:44.420Z,986.26
2018-04-08T09:15:44.518Z,986.26
2018-04-08T09:16:44.616Z,986.24
2018-04-08T09:17:44.742Z,986.24
2018-04-08T09:18:44.840Z,986.19
2018-04-08T09:19:44.938Z,986.24
2018-04-08T09:20:45.035Z,986.23
2018-04-08T09:21:45.134Z,986.22
2018-04-08T09:22:45.231Z,986.19
2018-04-08T09:23:45.332Z,986.21
2018-04-08T09:24:45.446Z,986.20
2018-04-08T09:25:45.565Z,986.19
2018-04-08T09:26:45.684Z,986.16
2018-04-08T09:27:45.762Z,986.21
2018-04-08T09:28:45.863Z,986.20
2018-04-08T09:29:45.959Z,986.14
2018-04-08T09:32:18.023Z,986.17
2018-04-08T09:33:18.123Z,986.16
2018-04-08T09:34:18.219Z,986.15
2018-04-08T09:35:18.323Z,986.11
2018-04-08T09:36:18.481Z,986.13
2018-04-08T09:37:18.519Z,986.14
2018-04-08T09:38:18.626Z,986.13
2018-04-08T09:39:18.721Z,986.17
2018-04-08T09:40:18.823Z,986.16
2018-04-08T09:41:18.914Z,986.15
2018-04-08T09:42:19.016Z,986.15
2018-04-08T09:43:19.106Z,986.15
2018-04-08T09:44:19.213Z,986.13
2018-04-08T09:45:19.316Z,986.13
2018-04-08T09:46:19.407Z,986.13
2018-04-08T09:47:19.515Z,986.09
2018-04-08T09:48:19.611Z,986.11
2018-04-08T09:49:19.711Z,986.11
2018-04-08T09:50:19.809Z,986.10
2018-04-08T09:51:19.908Z,986.06
2018-04-08T09:52:20.010Z,986.12
2018-04-08T09:53:20.109Z,986.05
2018-04-08T09:54:20.211Z,986.08
2018-04-08T09:55:20.343Z,986.07
2018-04-08T09:56:20.414Z,986.03
2018-04-08T09:57:20.518Z,986.05
2018-04-08T09:58:20.621Z,986.01
2018-04-08T09:59:20.721Z,985.98
2018-04-08T10:00:20.824Z,985.99
2018-04-08T10:01:20.926Z,985.98
2018-04-08T10:02:21.012Z,985.96
2018-04-08T10:03:21.110Z,985.94
2018-04-08T10:04:21.217Z,985.97
2018-04-08T10:05:21.312Z,985.94
2018-04-08T10:06:21.411Z,985.95
2018-04-08T10:07:21.524Z,985.91
2018-04-08T10:08:21.628Z,985.94
2018-04-08T10:09:21.728Z,985.92
2018-04-08T10:10:21.827Z,985.95
2018-04-08T10:11:21.927Z,985.90
2018-04-08T10:12:22.032Z,985.90
2018-04-08T10:13:22.139Z,985.89
2018-04-08T10:14:22.258Z,985.87
2018-04-08T10:15:22.349Z,985.87
2018-04-08T10:16:22.460Z,985.87
2018-04-08T10:17:22.555Z,985.89
2018-04-08T10:18:22.684Z,985.88
2018-04-08T10:19:22.791Z,985.86
2018-04-08T10:20:22.890Z,985.85
2018-04-08T10:21:23.032Z,985.83
2018-04-08T10:22:23.113Z,985.82
2018-04-08T10:23:23.218Z,985.82
2018-04-08T10:24:23.332Z,985.83
2018-04-08T10:25:23.445Z,985.83
2018-04-08T10:26:23.543Z,985.82
2018-04-08T10:27:23.652Z,985.83
2018-04-08T10:28:23.771Z,985.80
2018-04-08T10:29:23.887Z,985.84
2018-04-08T10:30:24.004Z,985.82
2018-04-08T10:31:24.121Z,985.84
2018-04-08T10:32:24.211Z,985.81
2018-04-08T10:33:24.313Z,985.85
2018-04-08T10:34:24.410Z,985.79
2018-04-08T10:35:24.507Z,985.80
2018-04-08T10:36:24.659Z,985.76
2018-04-08T10:37:24.713Z,985.78
2018-04-08T10:38:24.813Z,985.78
2018-04-08T10:39:24.918Z,985.73
2018-04-08T10:40:25.052Z,985.74
2018-04-08T10:41:25.162Z,985.71
2018-04-08T10:42:25.252Z,985.70
2018-04-08T10:43:25.356Z,985.70
2018-04-08T10:44:25.470Z,985.65
2018-04-08T10:45:25.564Z,985.61
2018-04-08T10:46:25.653Z,985.63
2018-04-08T10:47:25.777Z,985.62
2018-04-08T10:48:25.868Z,985.61
2018-04-08T10:49:25.971Z,985.58
2018-04-08T10:50:26.083Z,985.59
2018-04-08T10:51:26.182Z,985.61
2018-04-08T10:52:26.286Z,985.55
2018-04-08T10:53:26.387Z,985.55
2018-04-08T10:54:26.498Z,985.61
2018-04-08T10:55:26.612Z,985.56
2018-04-08T10:56:26.722Z,985.58
2018-04-08T10:57:26.852Z,985.55
2018-04-08T10:58:26.950Z,985.56
2018-04-08T10:59:27.042Z,985.56
2018-04-08T11:00:27.157Z,985.54
2018-04-08T11:01:27.269Z,985.54
2018-04-08T11:02:27.374Z,985.51
2018-04-08T11:03:27.480Z,985.54
2018-04-08T11:04:27.584Z,985.51
2018-04-08T11:05:27.675Z,985.48
2018-04-08T11:06:27.791Z,985.49
2018-04-08T11:07:27.893Z,985.49
2018-04-08T11:08:28.003Z,985.45
2018-04-08T11:09:28.104Z,985.45
2018-04-08T11:10:28.205Z,985.45
2018-04-08T11:11:28.315Z,985.42
2018-04-08T11:12:28.412Z,985.42
2018-04-08T11:13:28.520Z,985.42
2018-04-08T11:14:28.622Z,985.43
2018-04-08T11:15:28.737Z,985.37
2018-04-08T11:16:28.834Z,985.39
2018-04-08T11:17:28.938Z,985.38
2018-04-08T11:18:29.041Z,985.37
2018-04-08T11:19:29.139Z,985.37
2018-04-08T11:20:29.242Z,985.34
2018-04-08T11:21:29.347Z,985.36
2018-04-08T11:22:29.455Z,985.31
2018-04-08T11:23:29.549Z,985.31
2018-04-08T11:24:29.651Z,985.30
2018-04-08T11:25:29.754Z,985.28
2018-04-08T11:26:29.853Z,985.31
2018-04-08T11:27:29.955Z,985.27
2018-04-08T11:28:30.064Z,985.27
2018-04-08T11:29:30.164Z,985.24
2018-04-08T11:30:30.274Z,985.23
2018-04-08T11:31:30.393Z,985.21
2018-04-08T11:32:30.476Z,985.19
2018-04-08T11:33:30.575Z,985.18
2018-04-08T11:34:30.673Z,985.19
2018-04-08T11:37:22.992Z,985.17
2018-04-08T11:38:23.090Z,985.14
2018-04-08T11:39:23.180Z,985.12
2018-04-08T11:40:23.281Z,985.14
2018-04-08T11:41:23.388Z,985.12
2018-04-08T11:42:23.485Z,985.10
2018-04-08T11:43:23.594Z,985.06
2018-04-08T11:44:23.691Z,985.04
2018-04-08T11:45:23.803Z,985.04
2018-04-08T11:46:23.909Z,985.04
2018-04-08T11:47:24.001Z,985.04
2018-04-08T11:48:24.101Z,985.07
2018-04-08T11:49:24.192Z,985.05
2018-04-08T11:50:24.291Z,985.04
2018-04-08T11:51:24.378Z,984.97
2018-04-08T11:52:24.519Z,984.98
2018-04-08T11:53:24.577Z,985.00
2018-04-08T11:54:24.682Z,984.97
2018-04-08T11:55:24.803Z,984.97
2018-04-08T11:56:24.898Z,984.96
2018-04-08T11:57:24.995Z,984.93
2018-04-08T11:58:25.397Z,984.94
2018-04-08T11:59:25.257Z,984.95
2018-04-08T12:00:25.363Z,984.94
2018-04-08T12:01:25.469Z,984.98
2018-04-08T12:02:25.566Z,984.95
2018-04-08T12:03:25.659Z,984.93
2018-04-08T12:04:25.761Z,984.92
2018-04-08T12:05:25.870Z,984.93
2018-04-08T12:06:25.963Z,984.89
2018-04-08T12:07:26.065Z,984.87
2018-04-08T12:08:26.165Z,984.90
2018-04-08T12:09:26.267Z,984.82
2018-04-08T12:10:26.369Z,984.78
2018-04-08T12:11:26.474Z,984.75
2018-04-08T12:12:26.577Z,984.74
2018-04-08T12:13:26.679Z,984.74
2018-04-08T12:14:26.775Z,984.72
2018-04-08T12:15:26.870Z,984.72
2018-04-08T12:16:26.959Z,984.69
2018-04-08T12:17:27.062Z,984.70
2018-04-08T12:18:27.174Z,984.66
2018-04-08T12:19:27.277Z,984.69
2018-04-08T12:20:27.387Z,984.71
2018-04-08T12:21:27.479Z,984.67
2018-04-08T12:22:27.586Z,984.67
2018-04-08T12:23:27.690Z,984.65
2018-04-08T12:24:27.795Z,984.63
2018-04-08T12:25:27.898Z,984.63
2018-04-08T12:26:27.998Z,984.64
2018-04-08T12:27:28.107Z,984.63
2018-04-08T12:28:28.214Z,984.64
2018-04-08T12:29:28.320Z,984.64
2018-04-08T12:30:28.420Z,984.63
2018-04-08T12:31:28.522Z,984.64
2018-04-08T12:32:28.627Z,984.62
2018-04-08T12:33:28.741Z,984.63